createdAt,value
2018-09-20T00:02:41.752Z,100843.00
2018-09-20T00:08:10.907Z,100847.00
2018-09-20T00:10:40.057Z,100845.00
2018-09-20T00:13:09.230Z,100848.00
2018-09-20T00:15:38.506Z,100847.00
2018-09-20T00:18:07.945Z,100837.00
2018-09-20T00:20:37.120Z,100835.00
2018-09-20T00:23:06.379Z,100836.00
2018-09-20T00:25:35.611Z,100836.00
2018-09-20T00:28:04.791Z,100844.00
2018-09-20T00:30:33.950Z,100845.00
2018-09-20T00:33:03.137Z,100838.00
2018-09-20T00:38:32.853Z,100839.00
2018-09-20T00:41:10.458Z,100846.00
2018-09-20T00:43:39.641Z,100843.00
2018-09-20T00:46:08.825Z,100843.00
2018-09-20T00:48:37.978Z,100844.00
2018-09-20T00:51:07.524Z,100833.00
2018-09-20T00:53:36.673Z,100831.00
2018-09-20T00:56:05.936Z,100843.00
2018-09-20T00:58:35.110Z,100835.00
2018-09-20T01:01:04.321Z,100832.00
2018-09-20T01:03:33.505Z,100831.00
2018-09-20T01:06:02.677Z,100831.00
2018-09-20T01:08:31.893Z,100828.00
2018-09-20T01:11:01.069Z,100826.00
2018-09-20T01:13:30.258Z,100814.00
2018-09-20T01:15:59.447Z,100821.00
2018-09-20T01:18:28.681Z,100822.00
2018-09-20T01:20:57.982Z,100826.00
2018-09-20T01:23:27.212Z,100828.00
2018-09-20T01:25:56.406Z,100836.00
2018-09-20T01:28:25.622Z,100839.00
2018-09-20T01:30:54.785Z,100827.00
2018-09-20T01:33:23.944Z,100830.00
2018-09-20T01:35:53.221Z,100829.00
2018-09-20T01:38:22.409Z,100826.00
2018-09-20T01:44:44.142Z,100839.00
2018-09-20T01:47:13.330Z,100844.00
2018-09-20T01:49:42.539Z,100848.00
2018-09-20T01:52:11.725Z,100838.00
2018-09-20T01:54:40.950Z,100849.00
2018-09-20T01:57:10.122Z,100847.00
2018-09-20T02:00:08.901Z,100835.00
2018-09-20T02:02:38.062Z,100844.00
2018-09-20T02:05:08.029Z,100845.00
2018-09-20T02:07:37.287Z,100847.00
2018-09-20T02:10:06.801Z,100850.00
2018-09-20T02:12:35.961Z,100850.00
2018-09-20T02:15:05.418Z,100852.00
2018-09-20T02:17:34.612Z,100845.00
2018-09-20T02:20:03.793Z,100848.00
2018-09-20T02:22:33.014Z,100845.00
2018-09-20T02:25:02.188Z,100849.00
2018-09-20T02:27:31.406Z,100849.00
2018-09-20T02:30:00.574Z,100851.00
2018-09-20T02:32:29.721Z,100846.00
2018-09-20T02:34:58.926Z,100844.00
2018-09-20T02:37:28.145Z,100844.00
2018-09-20T02:39:57.307Z,100836.00
2018-09-20T02:42:26.504Z,100849.00
2018-09-20T02:44:55.803Z,100844.00
2018-09-20T02:47:24.957Z,100846.00
2018-09-20T02:49:54.122Z,100844.00
2018-09-20T02:52:23.366Z,100838.00
2018-09-20T02:54:52.573Z,100832.00
2018-09-20T02:57:21.771Z,100838.00
2018-09-20T02:59:51.053Z,100834.00
2018-09-20T03:02:20.249Z,100847.00
2018-09-20T03:04:49.486Z,100834.00
2018-09-20T03:07:18.667Z,100837.00
2018-09-20T03:09:47.857Z,100837.00
2018-09-20T03:12:17.013Z,100835.00
2018-09-20T03:14:46.218Z,100834.00
2018-09-20T03:17:15.386Z,100844.00
2018-09-20T03:19:44.561Z,100839.00
2018-09-20T03:22:13.789Z,100838.00
2018-09-20T03:24:43.036Z,100839.00
2018-09-20T03:27:12.190Z,100843.00
2018-09-20T03:29:41.374Z,100845.00
2018-09-20T03:32:11.804Z,100847.00
2018-09-20T03:34:40.980Z,100839.00
2018-09-20T03:37:10.158Z,100839.00
2018-09-20T03:39:39.418Z,100834.00
2018-09-20T03:42:08.582Z,100839.00
2018-09-20T03:44:37.965Z,100839.00
2018-09-20T03:47:07.263Z,100838.00
2018-09-20T03:49:36.679Z,100849.00
2018-09-20T03:52:05.853Z,100844.00
2018-09-20T03:54:35.027Z,100848.00
2018-09-20T03:57:04.277Z,100835.00
2018-09-20T03:59:33.417Z,100839.00
2018-09-20T04:02:11.129Z,100844.00
2018-09-20T04:04:40.337Z,100839.00
2018-09-20T04:07:12.968Z,100832.00
2018-09-20T04:09:42.189Z,100844.00
2018-09-20T04:12:11.353Z,100844.00
2018-09-20T04:14:40.565Z,100846.00
2018-09-20T04:17:09.822Z,100846.00
2018-09-20T04:19:39.134Z,100837.00
2018-09-20T04:22:08.308Z,100844.00
2018-09-20T04:24:37.584Z,100844.00
2018-09-20T04:27:06.913Z,100846.00
2018-09-20T04:29:36.069Z,100847.00
2018-09-20T04:32:11.194Z,100848.00
2018-09-20T04:35:09.035Z,100849.00
2018-09-20T04:37:38.242Z,100851.00
2018-09-20T04:40:07.505Z,100848.00
2018-09-20T04:42:36.772Z,100851.00
2018-09-20T04:45:06.700Z,100859.00
2018-09-20T04:47:35.857Z,100863.00
2018-09-20T04:50:05.110Z,100866.00
2018-09-20T04:52:34.598Z,100858.00
2018-09-20T04:55:03.761Z,100864.00
2018-09-20T04:57:32.920Z,100859.00
2018-09-20T05:06:51.148Z,100865.00
2018-09-20T05:09:20.395Z,100851.00
2018-09-20T05:11:49.567Z,100853.00
2018-09-20T05:14:18.942Z,100866.00
2018-09-20T05:16:48.135Z,100867.00
2018-09-20T05:19:17.277Z,100872.00
2018-09-20T05:21:46.697Z,100868.00
2018-09-20T05:24:15.869Z,100874.00
2018-09-20T05:26:45.105Z,100873.00
2018-09-20T05:29:14.318Z,100884.00
2018-09-20T05:31:43.491Z,100884.00
2018-09-20T05:34:12.717Z,100888.00
2018-09-20T05:36:41.869Z,100888.00
2018-09-20T05:39:11.543Z,100885.00
2018-09-20T05:41:40.961Z,100885.00
2018-09-20T05:44:10.741Z,100885.00
2018-09-20T05:46:41.025Z,100877.00
2018-09-20T05:49:10.573Z,100877.00
2018-09-20T05:51:39.797Z,100883.00
2018-09-20T05:54:09.266Z,100881.00
2018-09-20T05:56:38.753Z,100880.00
2018-09-20T05:59:11.210Z,100883.00
2018-09-20T06:01:40.474Z,100881.00
2018-09-20T06:04:12.761Z,100886.00
2018-09-20T06:07:09.156Z,100885.00
2018-09-20T06:09:38.317Z,100885.00
2018-09-20T06:12:11.134Z,100882.00
2018-09-20T06:15:09.630Z,100889.00
2018-09-20T06:17:39.351Z,100882.00
2018-09-20T06:20:11.825Z,100898.00
2018-09-20T06:22:40.974Z,100887.00
2018-09-20T06:25:10.361Z,100884.00
2018-09-20T07:37:08.730Z,100909.00
2018-09-20T07:49:08.993Z,100899.00
2018-09-20T08:01:08.872Z,100894.00
2018-09-20T08:13:08.792Z,100878.00
2018-09-20T08:19:08.646Z,100875.00
2018-09-20T08:28:08.696Z,100876.00
2018-09-20T08:37:09.236Z,100872.00
2018-09-20T08:46:08.586Z,100874.00
2018-09-20T08:58:08.594Z,100876.00
2018-09-20T09:07:09.270Z,100877.00
2018-09-20T09:16:09.231Z,100872.00
2018-09-20T09:25:09.277Z,100873.00
2018-09-20T09:37:08.926Z,100863.00
2018-09-20T09:52:08.813Z,100846.00
2018-09-20T10:04:08.584Z,100838.00
2018-09-20T10:13:08.840Z,100828.00
2018-09-20T10:25:09.021Z,100822.00
2018-09-20T10:34:08.980Z,100812.00
2018-09-20T10:46:08.645Z,100791.00
2018-09-20T11:19:08.771Z,100768.00
2018-09-20T11:28:08.785Z,100763.00
2018-09-20T11:40:09.071Z,100744.00
2018-09-20T11:52:09.196Z,100739.00
2018-09-20T12:34:09.549Z,100699.00
2018-09-20T12:40:09.028Z,100699.00
2018-09-20T12:49:09.287Z,100681.00
2018-09-20T12:55:08.729Z,100678.00
2018-09-20T13:01:09.058Z,100675.00
2018-09-20T13:07:09.597Z,100662.00
2018-09-20T13:16:09.885Z,100653.00
2018-09-20T13:18:39.089Z,100659.00
2018-09-20T13:21:12.238Z,100659.00
2018-09-20T13:24:10.425Z,100652.00
2018-09-20T13:30:08.823Z,100646.00
2018-09-20T13:36:10.520Z,100638.00
2018-09-20T13:38:39.675Z,100645.00
2018-09-20T13:41:12.448Z,100639.00
2018-09-20T13:44:08.999Z,100641.00
2018-09-20T13:53:09.849Z,100624.00
2018-09-20T13:55:39.087Z,100625.00
2018-09-20T13:58:12.553Z,100626.00
2018-09-20T14:01:10.462Z,100625.00
2018-09-20T14:07:01.325Z,100619.00
2018-09-20T14:09:30.494Z,100617.00
2018-09-20T14:12:12.359Z,100618.00
2018-09-20T14:15:08.860Z,100612.00
2018-09-20T14:17:38.347Z,100618.00
2018-09-20T14:20:13.180Z,100610.00
2018-09-20T14:23:08.973Z,100604.00
2018-09-20T14:29:09.239Z,100598.00
2018-09-20T14:35:10.218Z,100597.00
2018-09-20T14:47:09.151Z,100604.00
2018-09-20T15:25:30.181Z,100598.00
2018-09-20T15:28:00.858Z,100599.00
2018-09-20T15:30:30.193Z,100599.00
2018-09-20T15:32:59.385Z,100598.00
2018-09-20T15:35:38.203Z,100595.00
2018-09-20T15:38:07.558Z,100593.00
2018-09-20T15:54:11.741Z,100589.00
2018-09-20T15:59:57.470Z,100588.00
2018-09-20T16:05:36.665Z,100586.00
2018-09-20T16:11:02.557Z,100591.00
2018-09-20T16:13:50.314Z,100588.00
2018-09-20T16:16:38.284Z,100582.00
2018-09-20T16:19:07.477Z,100586.00
2018-09-20T16:21:36.689Z,100580.00
2018-09-20T16:24:11.598Z,100579.00
2018-09-20T16:27:09.737Z,100577.00
2018-09-20T17:14:12.706Z,100581.00
2018-09-20T17:17:09.176Z,100579.00
2018-09-20T17:23:08.939Z,100581.00
2018-09-20T17:32:09.187Z,100590.00
2018-09-20T17:50:09.621Z,100593.00
2018-09-20T17:56:09.309Z,100591.00
2018-09-20T18:05:14.301Z,100589.00
2018-09-20T18:08:09.666Z,100598.00
2018-09-20T18:17:09.051Z,100601.00
2018-09-20T18:19:38.290Z,100601.00
2018-09-20T18:22:13.654Z,100598.00
2018-09-20T18:25:09.702Z,100603.00
2018-09-20T18:31:09.486Z,100597.00
2018-09-20T18:37:09.113Z,100595.00
2018-09-20T18:46:09.584Z,100589.00
2018-09-20T19:13:18.961Z,100590.00
2018-09-20T19:17:17.646Z,100595.00
2018-09-20T19:19:49.838Z,100593.00
2018-09-20T19:22:19.090Z,100593.00
2018-09-20T19:25:11.916Z,100582.00
2018-09-20T19:28:09.772Z,100576.00
2018-09-20T19:33:39.697Z,100583.00
2018-09-20T19:36:12.633Z,100586.00
2018-09-20T19:39:09.534Z,100588.00
2018-09-20T19:48:09.891Z,100581.00
2018-09-20T19:54:09.356Z,100581.00
2018-09-20T20:00:08.969Z,100576.00
2018-09-20T20:03:09.042Z,100578.00
2018-09-20T20:18:09.143Z,100590.00
2018-09-20T20:30:09.437Z,100596.00
2018-09-20T20:39:09.107Z,100594.00
2018-09-20T20:48:09.673Z,100588.00
2018-09-20T21:00:09.343Z,100599.00
2018-09-20T21:09:09.407Z,100590.00
2018-09-20T21:20:23.081Z,100587.00
2018-09-20T23:12:09.830Z,100509.00
2018-09-20T23:18:09.564Z,100510.00
2018-09-20T23:27:09.794Z,100497.00
2018-09-20T23:33:09.786Z,100491.00
2018-09-20T23:43:33.410Z,100491.00
